createdAt,value
2023-01-19T00:00:42.085Z,99509.84
2023-01-19T00:03:16.121Z,99509.38
2023-01-19T00:05:43.966Z,99509.69
2023-01-19T00:08:17.355Z,99521.41
2023-01-19T00:10:46.365Z,99519.41
2023-01-19T00:13:13.833Z,99527.91
2023-01-19T00:15:40.441Z,99515.53
2023-01-19T00:18:08.041Z,99523.88
2023-01-19T00:20:41.044Z,99521.97
2023-01-19T00:23:08.472Z,99523.53
2023-01-19T00:25:35.649Z,99522.09
2023-01-19T00:28:02.873Z,99513.59
2023-01-19T00:30:29.591Z,99524.66
2023-01-19T00:32:56.488Z,99522.22
2023-01-19T00:35:22.976Z,99528.66
2023-01-19T00:37:49.567Z,99524.91
2023-01-19T00:40:16.568Z,99520.19
2023-01-19T00:42:48.298Z,99520.91
2023-01-19T00:45:18.977Z,99518.38
2023-01-19T00:47:48.810Z,99527.34
2023-01-19T00:50:16.787Z,99529.03
2023-01-19T00:52:46.379Z,99529.41
2023-01-19T00:55:16.925Z,99538.03
2023-01-19T00:57:45.869Z,99528.44
2023-01-19T01:00:15.752Z,99538.72
2023-01-19T01:02:44.033Z,99543.09
2023-01-19T01:05:11.464Z,99548.78
2023-01-19T01:07:40.860Z,99548.19
2023-01-19T01:10:19.844Z,99542.34
2023-01-19T01:12:57.152Z,99544.53
2023-01-19T01:15:26.596Z,99546.94
2023-01-19T01:17:53.368Z,99543.75
2023-01-19T01:20:30.439Z,99546.34
2023-01-19T01:22:58.032Z,99550.19
2023-01-19T01:25:26.706Z,99550.06
2023-01-19T01:27:56.450Z,99555.69
2023-01-19T01:30:23.585Z,99558.13
2023-01-19T01:32:52.530Z,99552.84
2023-01-19T01:35:19.052Z,99555.44
2023-01-19T01:37:45.909Z,99556.63
2023-01-19T01:40:15.843Z,99553.81
2023-01-19T01:42:45.716Z,99561.63
2023-01-19T01:45:38.301Z,99571.91
2023-01-19T01:48:15.126Z,99567.56
2023-01-19T01:51:26.339Z,99563.56
2023-01-19T01:54:06.782Z,99556.28
2023-01-19T01:56:39.798Z,99561.88
2023-01-19T01:59:10.250Z,99557.63
2023-01-19T02:01:56.103Z,99562.66
2023-01-19T02:04:23.885Z,99567.78
2023-01-19T02:07:09.575Z,99562.81
2023-01-19T02:09:56.234Z,99556.03
2023-01-19T02:12:42.077Z,99556.16
2023-01-19T02:15:17.580Z,99560.13
2023-01-19T02:17:44.449Z,99561.63
2023-01-19T02:20:11.662Z,99553.94
2023-01-19T02:22:48.838Z,99563.94
2023-01-19T02:25:19.369Z,99568.31
2023-01-19T02:27:46.236Z,99564.03
2023-01-19T02:30:16.731Z,99561.94
2023-01-19T02:32:43.808Z,99558.25
2023-01-19T02:35:12.126Z,99569.13
2023-01-19T02:37:42.741Z,99562.84
2023-01-19T02:40:15.020Z,99564.06
2023-01-19T02:42:53.115Z,99570.63
2023-01-19T02:45:22.535Z,99566.03
2023-01-19T02:47:52.815Z,99567.00
2023-01-19T02:50:46.279Z,99563.25
2023-01-19T02:53:38.823Z,99557.06
2023-01-19T02:56:08.147Z,99557.56
2023-01-19T02:58:49.567Z,99561.94
2023-01-19T03:01:41.384Z,99563.50
2023-01-19T03:04:23.288Z,99563.38
2023-01-19T03:07:00.023Z,99558.66
2023-01-19T03:09:52.699Z,99551.50
2023-01-19T03:12:34.918Z,99543.94
2023-01-19T03:15:29.792Z,99553.97
2023-01-19T03:18:00.506Z,99554.94
2023-01-19T03:20:29.022Z,99558.34
2023-01-19T03:23:02.760Z,99560.88
2023-01-19T03:25:34.639Z,99565.63
2023-01-19T03:28:02.205Z,99570.09
2023-01-19T03:30:40.605Z,99571.03
2023-01-19T03:33:15.237Z,99574.03
2023-01-19T03:35:49.155Z,99568.31
2023-01-19T03:38:18.764Z,99569.38
2023-01-19T03:40:47.470Z,99572.13
2023-01-19T03:43:17.027Z,99572.00
2023-01-19T03:45:44.597Z,99572.84
2023-01-19T03:48:13.057Z,99576.34
2023-01-19T03:50:39.539Z,99579.16
2023-01-19T03:53:15.113Z,99582.78
2023-01-19T03:55:45.010Z,99579.00
2023-01-19T03:58:11.960Z,99576.88
2023-01-19T04:00:38.765Z,99581.34
2023-01-19T04:03:09.132Z,99583.31
2023-01-19T04:05:37.776Z,99577.50
2023-01-19T04:08:04.393Z,99586.25
2023-01-19T04:10:31.981Z,99586.09
2023-01-19T04:13:02.470Z,99591.19
2023-01-19T04:15:30.730Z,99587.44
2023-01-19T04:17:58.276Z,99585.50
2023-01-19T04:20:27.176Z,99590.34
2023-01-19T04:22:55.159Z,99586.25
2023-01-19T04:25:21.867Z,99580.69
2023-01-19T04:27:52.939Z,99592.56
2023-01-19T04:30:19.817Z,99592.06
2023-01-19T04:32:48.861Z,99585.78
2023-01-19T04:35:15.452Z,99591.09
2023-01-19T04:37:42.003Z,99591.16
2023-01-19T04:40:09.589Z,99583.16
2023-01-19T04:42:36.099Z,99592.63
2023-01-19T04:45:02.614Z,99591.66
2023-01-19T04:47:30.005Z,99594.22
2023-01-19T04:49:56.629Z,99601.16
2023-01-19T04:52:23.892Z,99600.56
2023-01-19T04:54:50.600Z,99611.97
2023-01-19T04:57:17.339Z,99605.53
2023-01-19T04:59:43.896Z,99617.75
2023-01-19T05:02:11.434Z,99612.56
2023-01-19T05:04:37.960Z,99623.34
2023-01-19T05:07:04.864Z,99618.59
2023-01-19T05:09:32.121Z,99613.69
2023-01-19T05:11:58.719Z,99618.75
2023-01-19T05:14:27.509Z,99620.94
2023-01-19T05:16:54.291Z,99622.75
2023-01-19T05:19:21.471Z,99618.00
2023-01-19T05:21:52.744Z,99614.28
2023-01-19T05:24:19.292Z,99610.38
2023-01-19T05:26:45.845Z,99611.00
2023-01-19T05:29:12.460Z,99614.75
2023-01-19T05:31:39.624Z,99624.34
2023-01-19T05:34:06.397Z,99620.81
2023-01-19T05:36:33.216Z,99621.69
2023-01-19T05:39:00.159Z,99617.53
2023-01-19T05:41:26.667Z,99620.44
2023-01-19T05:43:53.634Z,99619.69
2023-01-19T05:46:22.672Z,99619.81
2023-01-19T05:48:49.170Z,99609.13
2023-01-19T05:51:15.761Z,99615.09
2023-01-19T05:53:42.835Z,99612.88
2023-01-19T05:56:10.273Z,99618.34
2023-01-19T05:58:39.476Z,99623.22
2023-01-19T06:01:10.356Z,99645.03
2023-01-19T06:03:39.207Z,99631.72
2023-01-19T06:06:05.789Z,99634.63
2023-01-19T06:08:32.695Z,99640.94
2023-01-19T06:11:01.772Z,99643.63
2023-01-19T06:13:28.235Z,99641.75
2023-01-19T06:16:01.636Z,99643.56
2023-01-19T06:18:28.805Z,99636.50
2023-01-19T06:20:58.777Z,99634.03
2023-01-19T06:23:26.618Z,99637.38
2023-01-19T06:25:53.134Z,99633.00
2023-01-19T06:28:19.506Z,99639.84
2023-01-19T06:30:50.673Z,99646.81
2023-01-19T06:33:17.334Z,99646.88
2023-01-19T06:35:45.361Z,99652.44
2023-01-19T06:38:13.543Z,99654.56
2023-01-19T06:40:41.303Z,99657.25
2023-01-19T06:43:08.516Z,99658.69
2023-01-19T06:45:35.312Z,99670.53
2023-01-19T06:48:01.741Z,99658.94
2023-01-19T06:50:28.134Z,99662.97
2023-01-19T06:52:54.534Z,99654.41
2023-01-19T06:55:21.132Z,99661.09
2023-01-19T06:57:56.963Z,99663.88
2023-01-19T07:00:25.602Z,99670.06
2023-01-19T07:02:52.778Z,99674.72
2023-01-19T07:05:19.314Z,99675.44
2023-01-19T07:07:51.950Z,99678.16
2023-01-19T07:10:18.553Z,99673.25
2023-01-19T07:12:47.399Z,99677.63
2023-01-19T07:15:15.765Z,99679.53
2023-01-19T07:17:42.747Z,99677.44
2023-01-19T07:20:14.517Z,99682.03
2023-01-19T07:22:43.485Z,99685.03
2023-01-19T07:25:10.324Z,99691.00
2023-01-19T07:27:37.143Z,99680.84
2023-01-19T07:30:04.590Z,99684.22
2023-01-19T07:32:31.119Z,99690.63
2023-01-19T07:34:57.593Z,99692.91
2023-01-19T07:37:26.305Z,99693.78
2023-01-19T07:39:52.678Z,99692.53
2023-01-19T07:42:19.333Z,99699.72
2023-01-19T07:44:45.811Z,99696.78
2023-01-19T07:47:14.993Z,99692.00
2023-01-19T07:49:41.403Z,99698.78
2023-01-19T07:52:08.287Z,99701.19
2023-01-19T07:54:34.747Z,99700.63
2023-01-19T07:57:01.219Z,99696.69
2023-01-19T07:59:30.261Z,99693.59
2023-01-19T08:01:59.168Z,99703.75
2023-01-19T08:04:27.484Z,99703.22
2023-01-19T08:06:55.753Z,99706.47
2023-01-19T08:09:22.794Z,99702.66
2023-01-19T08:11:49.234Z,99707.31
2023-01-19T08:14:15.750Z,99711.56
2023-01-19T08:16:42.182Z,99720.31
2023-01-19T08:19:08.662Z,99722.84
2023-01-19T08:21:36.366Z,99719.88
2023-01-19T08:24:03.088Z,99724.13
2023-01-19T08:26:35.470Z,99726.25
2023-01-19T08:29:05.172Z,99728.63
2023-01-19T08:31:31.817Z,99734.72
2023-01-19T08:33:59.046Z,99726.25
2023-01-19T08:36:30.301Z,99725.00
2023-01-19T08:38:56.794Z,99724.72
2023-01-19T08:41:23.319Z,99723.28
2023-01-19T08:43:52.296Z,99727.94
2023-01-19T08:46:21.264Z,99728.38
2023-01-19T08:48:53.476Z,99730.63
2023-01-19T08:51:19.882Z,99725.28
2023-01-19T08:53:46.623Z,99729.78
2023-01-19T08:56:13.856Z,99722.72
2023-01-19T08:58:42.148Z,99723.56
2023-01-19T09:01:10.298Z,99721.56
2023-01-19T09:03:37.201Z,99717.63
2023-01-19T09:06:10.142Z,99725.97
2023-01-19T09:08:36.871Z,99722.13
2023-01-19T09:11:03.481Z,99722.69
2023-01-19T09:13:32.109Z,99720.16
2023-01-19T09:15:58.602Z,99724.06
2023-01-19T09:18:25.367Z,99727.47
2023-01-19T09:20:51.785Z,99728.03
2023-01-19T09:23:21.231Z,99730.28
2023-01-19T09:25:48.209Z,99732.69
2023-01-19T09:28:17.697Z,99724.47
2023-01-19T09:30:44.788Z,99731.25
2023-01-19T09:33:15.246Z,99726.59
2023-01-19T09:35:42.793Z,99731.78
2023-01-19T09:38:10.511Z,99730.38
2023-01-19T09:40:47.751Z,99740.69
2023-01-19T09:43:48.748Z,99741.97
2023-01-19T09:46:24.477Z,99744.66
2023-01-19T09:48:57.727Z,99748.31
2023-01-19T09:51:27.256Z,99744.66
2023-01-19T09:54:04.984Z,99740.41
2023-01-19T09:56:32.157Z,99746.75
2023-01-19T09:59:00.129Z,99734.72
2023-01-19T10:01:34.827Z,99736.13
2023-01-19T10:04:30.577Z,99733.13
2023-01-19T10:07:06.641Z,99736.66
2023-01-19T10:09:42.371Z,99738.03
2023-01-19T10:12:26.920Z,99734.66
2023-01-19T10:15:12.345Z,99736.72
2023-01-19T10:17:46.342Z,99735.31
2023-01-19T10:20:35.515Z,99745.31
2023-01-19T10:23:06.317Z,99744.16
2023-01-19T10:25:33.443Z,99747.63
2023-01-19T10:28:00.812Z,99744.91
2023-01-19T10:30:30.166Z,99743.09
2023-01-19T10:32:56.673Z,99745.78
2023-01-19T10:35:25.243Z,99741.50
2023-01-19T10:37:56.214Z,99746.31
2023-01-19T10:40:33.386Z,99742.25
2023-01-19T10:43:00.502Z,99736.78
2023-01-19T10:45:30.274Z,99742.00
2023-01-19T10:48:06.735Z,99744.97
2023-01-19T10:50:39.702Z,99734.38
2023-01-19T10:53:17.355Z,99732.47
2023-01-19T10:55:44.078Z,99731.16
2023-01-19T10:58:31.195Z,99732.44
2023-01-19T11:01:13.832Z,99729.81
2023-01-19T11:03:40.410Z,99733.84
2023-01-19T11:06:15.762Z,99734.00
2023-01-19T11:08:44.162Z,99740.81
2023-01-19T11:11:12.428Z,99744.31
2023-01-19T11:13:41.253Z,99753.78
2023-01-19T11:16:30.966Z,99751.91
2023-01-19T11:18:58.331Z,99753.44
2023-01-19T11:21:29.268Z,99760.50
2023-01-19T11:24:09.279Z,99756.28
2023-01-19T11:26:47.966Z,99754.91
2023-01-19T11:29:25.132Z,99748.53
2023-01-19T11:31:53.693Z,99747.81
2023-01-19T11:34:23.231Z,99754.31
2023-01-19T11:37:05.169Z,99741.44
2023-01-19T11:39:44.867Z,99746.50
2023-01-19T11:42:13.137Z,99741.00
2023-01-19T11:44:49.903Z,99732.44
2023-01-19T11:47:28.345Z,99734.63
2023-01-19T11:49:57.737Z,99730.13
2023-01-19T11:52:43.229Z,99737.19
2023-01-19T11:55:12.517Z,99729.06
2023-01-19T11:57:43.532Z,99730.91
2023-01-19T12:00:29.084Z,99725.16
2023-01-19T12:03:04.598Z,99729.81
2023-01-19T12:05:34.341Z,99730.63
2023-01-19T12:08:06.710Z,99728.06
2023-01-19T12:10:38.369Z,99724.91
2023-01-19T12:13:07.937Z,99722.34
2023-01-19T12:15:38.884Z,99714.31
2023-01-19T12:18:07.901Z,99729.06
2023-01-19T12:20:44.649Z,99724.63
2023-01-19T12:23:10.975Z,99736.78
2023-01-19T12:25:54.780Z,99725.25
2023-01-19T12:28:27.994Z,99711.66
2023-01-19T12:30:55.505Z,99710.72
2023-01-19T12:33:21.941Z,99724.84
2023-01-19T12:35:56.999Z,99710.91
2023-01-19T12:38:47.864Z,99707.03
2023-01-19T12:41:19.680Z,99703.06
2023-01-19T12:43:47.912Z,99710.00
2023-01-19T12:46:28.792Z,99699.41
2023-01-19T12:49:03.266Z,99698.09
2023-01-19T12:51:30.001Z,99690.63
2023-01-19T12:54:01.594Z,99701.84
2023-01-19T12:56:34.124Z,99701.50
2023-01-19T12:59:01.221Z,99697.16
2023-01-19T13:01:27.803Z,99693.13
2023-01-19T13:04:04.175Z,99690.28
2023-01-19T13:07:05.708Z,99699.19
2023-01-19T13:09:34.005Z,99701.84
2023-01-19T13:12:25.616Z,99694.38
2023-01-19T13:15:27.357Z,99696.34
2023-01-19T13:17:54.679Z,99697.00
2023-01-19T13:20:23.817Z,99708.25
2023-01-19T13:22:52.375Z,99700.63
2023-01-19T13:25:29.338Z,99713.25
2023-01-19T13:27:56.116Z,99698.78
2023-01-19T13:30:27.221Z,99710.41
2023-01-19T13:33:05.355Z,99702.00
2023-01-19T13:35:32.087Z,99712.06
2023-01-19T13:37:59.568Z,99714.22
2023-01-19T13:40:35.732Z,99708.13
2023-01-19T13:43:03.465Z,99708.31
2023-01-19T13:45:33.352Z,99695.00
2023-01-19T13:48:05.215Z,99707.28
2023-01-19T13:50:35.053Z,99696.31
2023-01-19T13:53:02.711Z,99706.22
2023-01-19T13:55:31.950Z,99713.63
2023-01-19T13:57:58.498Z,99714.31
2023-01-19T14:00:27.913Z,99699.47
2023-01-19T14:02:54.582Z,99711.09
2023-01-19T14:05:23.222Z,99714.63
2023-01-19T14:08:00.819Z,99718.63
2023-01-19T14:10:27.731Z,99710.56
2023-01-19T14:13:05.580Z,99713.56
2023-01-19T14:15:38.897Z,99718.97
2023-01-19T14:18:19.143Z,99725.34
2023-01-19T14:20:54.891Z,99719.41
2023-01-19T14:23:43.869Z,99724.28
2023-01-19T14:26:47.724Z,99717.19
2023-01-19T14:29:27.886Z,99721.91
2023-01-19T14:32:00.032Z,99726.63
2023-01-19T14:34:45.217Z,99721.50
2023-01-19T14:37:36.095Z,99723.34
2023-01-19T14:40:12.127Z,99722.53
2023-01-19T14:42:55.365Z,99723.34
2023-01-19T14:45:42.964Z,99728.75
2023-01-19T14:48:18.218Z,99727.06
2023-01-19T14:50:57.630Z,99725.91
2023-01-19T14:53:29.898Z,99734.69
2023-01-19T14:56:03.144Z,99732.00
2023-01-19T14:58:32.503Z,99734.69
2023-01-19T15:00:59.391Z,99734.50
2023-01-19T15:03:43.577Z,99730.13
2023-01-19T15:06:14.849Z,99731.16
2023-01-19T15:08:41.311Z,99736.53
2023-01-19T15:11:18.035Z,99732.28
2023-01-19T15:13:45.183Z,99729.91
2023-01-19T15:16:11.775Z,99737.97
2023-01-19T15:18:38.857Z,99735.59
2023-01-19T15:21:10.174Z,99738.63
2023-01-19T15:23:36.633Z,99738.22
2023-01-19T15:26:07.496Z,99746.59
2023-01-19T15:28:34.509Z,99740.50
2023-01-19T15:31:00.895Z,99744.38
2023-01-19T15:33:31.838Z,99747.22
2023-01-19T15:35:58.757Z,99751.75
2023-01-19T15:38:26.476Z,99746.84
2023-01-19T15:40:55.214Z,99753.22
2023-01-19T15:43:22.231Z,99747.16
2023-01-19T15:46:00.338Z,99751.16
2023-01-19T15:48:26.794Z,99746.06
2023-01-19T15:50:53.401Z,99743.53
2023-01-19T15:53:21.533Z,99746.53
2023-01-19T15:55:52.740Z,99747.50
2023-01-19T15:58:20.648Z,99751.38
2023-01-19T16:00:54.903Z,99756.88
2023-01-19T16:03:23.997Z,99754.38
2023-01-19T16:05:53.031Z,99758.03
2023-01-19T16:08:21.985Z,99763.56
2023-01-19T16:10:48.409Z,99759.34
2023-01-19T16:13:15.034Z,99755.94
2023-01-19T16:15:42.462Z,99769.56
2023-01-19T16:18:13.520Z,99753.56
2023-01-19T16:20:39.915Z,99767.16
2023-01-19T16:23:14.946Z,99768.84
2023-01-19T16:25:41.794Z,99778.78
2023-01-19T16:28:10.798Z,99771.53
2023-01-19T16:30:37.249Z,99777.94
2023-01-19T16:33:05.233Z,99776.91
2023-01-19T16:35:34.364Z,99773.41
2023-01-19T16:38:03.306Z,99780.63
2023-01-19T16:40:29.672Z,99780.63
2023-01-19T16:42:56.152Z,99773.69
2023-01-19T16:45:22.630Z,99779.06
2023-01-19T16:47:52.185Z,99780.75
2023-01-19T16:50:19.063Z,99775.50
2023-01-19T16:52:45.758Z,99783.75
2023-01-19T16:55:14.415Z,99785.59
2023-01-19T16:57:41.244Z,99779.66
2023-01-19T17:00:10.340Z,99784.34
2023-01-19T17:02:37.556Z,99782.66
2023-01-19T17:05:04.558Z,99776.88
2023-01-19T17:07:31.034Z,99785.09
2023-01-19T17:09:57.638Z,99779.00
2023-01-19T17:12:24.402Z,99779.16
2023-01-19T17:14:50.814Z,99782.00
2023-01-19T17:17:17.277Z,99784.84
2023-01-19T17:19:45.088Z,99784.16
2023-01-19T17:22:14.996Z,99787.13
2023-01-19T17:24:43.154Z,99786.13
2023-01-19T17:27:10.574Z,99785.28
2023-01-19T17:29:37.052Z,99789.13
2023-01-19T17:32:03.974Z,99792.78
2023-01-19T17:34:30.505Z,99788.56
2023-01-19T17:37:04.480Z,99803.84
2023-01-19T17:39:30.935Z,99797.91
2023-01-19T17:42:00.344Z,99804.13
2023-01-19T17:44:26.778Z,99803.59
2023-01-19T17:46:53.247Z,99803.72
2023-01-19T17:49:19.659Z,99806.72
2023-01-19T17:51:46.205Z,99810.69
2023-01-19T17:54:13.979Z,99807.31
2023-01-19T17:56:41.359Z,99802.91
2023-01-19T17:59:08.170Z,99806.59
2023-01-19T18:01:40.459Z,99805.75
2023-01-19T18:04:08.083Z,99807.75
2023-01-19T18:06:34.745Z,99808.03
2023-01-19T18:09:01.234Z,99818.06
2023-01-19T18:11:28.425Z,99811.03
2023-01-19T18:13:55.222Z,99808.78
2023-01-19T18:16:32.570Z,99810.03
2023-01-19T18:18:58.942Z,99812.59
2023-01-19T18:21:32.549Z,99819.09
2023-01-19T18:24:23.386Z,99814.16
2023-01-19T18:27:29.098Z,99816.44
2023-01-19T18:30:51.636Z,99815.16
2023-01-19T18:33:55.574Z,99821.69
2023-01-19T18:36:59.694Z,99815.03
2023-01-19T18:40:04.448Z,99815.16
2023-01-19T18:43:09.050Z,99819.00
2023-01-19T18:46:13.069Z,99820.41
2023-01-19T18:49:17.061Z,99820.00
2023-01-19T18:52:20.682Z,99821.53
2023-01-19T18:55:24.795Z,99821.25
2023-01-19T18:58:29.185Z,99823.38
2023-01-19T19:01:35.045Z,99824.34
2023-01-19T19:04:39.492Z,99824.50
2023-01-19T19:07:43.614Z,99822.69
2023-01-19T19:10:47.679Z,99818.72
2023-01-19T19:13:52.131Z,99820.00
2023-01-19T19:16:56.194Z,99818.72
2023-01-19T19:20:00.384Z,99823.09
2023-01-19T19:23:04.363Z,99826.50
2023-01-19T19:25:32.567Z,99827.75
2023-01-19T19:28:01.397Z,99824.66
2023-01-19T19:30:28.188Z,99827.63
2023-01-19T19:32:56.477Z,99830.59
2023-01-19T19:35:23.681Z,99829.75
2023-01-19T19:37:51.418Z,99822.69
2023-01-19T19:40:17.858Z,99834.56
2023-01-19T19:42:44.226Z,99828.63
2023-01-19T19:45:11.398Z,99832.16
2023-01-19T19:47:40.760Z,99832.00
2023-01-19T19:50:10.606Z,99836.69
2023-01-19T19:52:45.648Z,99833.13
2023-01-19T19:55:12.712Z,99829.59
2023-01-19T19:57:39.179Z,99834.28
2023-01-19T20:00:07.042Z,99842.34
2023-01-19T20:02:33.473Z,99840.75
2023-01-19T20:05:00.404Z,99845.31
2023-01-19T20:07:27.089Z,99845.31
2023-01-19T20:09:55.010Z,99851.25
2023-01-19T20:12:21.623Z,99842.59
2023-01-19T20:14:50.681Z,99850.94
2023-01-19T20:17:17.191Z,99847.28
2023-01-19T20:19:45.550Z,99844.16
2023-01-19T20:22:12.229Z,99844.47
2023-01-19T20:24:39.291Z,99852.50
2023-01-19T20:27:08.047Z,99855.44
2023-01-19T20:29:34.631Z,99853.63
2023-01-19T20:32:01.344Z,99853.78
2023-01-19T20:34:33.493Z,99855.88
2023-01-19T20:37:04.050Z,99852.50
2023-01-19T20:39:33.247Z,99860.56
2023-01-19T20:42:02.275Z,99859.25
2023-01-19T20:44:28.858Z,99853.88
2023-01-19T20:46:57.540Z,99856.31
2023-01-19T20:49:24.131Z,99855.19
2023-01-19T20:51:52.349Z,99860.41
2023-01-19T20:54:21.100Z,99860.81
2023-01-19T20:56:47.690Z,99857.88
2023-01-19T20:59:16.899Z,99857.88
2023-01-19T21:01:46.121Z,99863.50
2023-01-19T21:04:12.794Z,99867.03
2023-01-19T21:06:44.904Z,99867.03
2023-01-19T21:09:11.610Z,99871.72
2023-01-19T21:11:41.727Z,99874.69
2023-01-19T21:14:08.373Z,99868.31
2023-01-19T21:16:36.261Z,99874.53
2023-01-19T21:19:03.384Z,99870.44
2023-01-19T21:21:31.695Z,99883.44
2023-01-19T21:24:00.681Z,99882.72
2023-01-19T21:26:29.678Z,99878.06
2023-01-19T21:28:57.577Z,99875.94
2023-01-19T21:31:27.766Z,99881.88
2023-01-19T21:34:00.588Z,99884.56
2023-01-19T21:36:26.986Z,99886.56
2023-01-19T21:38:55.507Z,99885.84
2023-01-19T21:41:24.469Z,99882.59
2023-01-19T21:43:50.892Z,99891.63
2023-01-19T21:46:20.251Z,99887.94
2023-01-19T21:48:47.093Z,99887.66
2023-01-19T21:51:15.042Z,99901.38
2023-01-19T21:53:46.975Z,99898.13
2023-01-19T21:56:13.677Z,99903.50
2023-01-19T21:58:40.016Z,99908.00
2023-01-19T22:01:13.707Z,99904.63
2023-01-19T22:03:41.562Z,99904.06
2023-01-19T22:06:10.925Z,99913.22
2023-01-19T22:08:40.575Z,99911.81
2023-01-19T22:11:09.379Z,99919.16
2023-01-19T22:13:38.542Z,99923.97
2023-01-19T22:16:13.959Z,99921.69
2023-01-19T22:18:42.757Z,99929.72
2023-01-19T22:21:12.458Z,99928.47
2023-01-19T22:23:41.919Z,99927.34
2023-01-19T22:26:09.770Z,99936.25
2023-01-19T22:28:38.534Z,99937.94
2023-01-19T22:31:07.168Z,99940.75
2023-01-19T22:33:33.718Z,99939.94
2023-01-19T22:36:30.413Z,99937.38
2023-01-19T22:38:59.163Z,99937.38
2023-01-19T22:41:32.750Z,99929.72
2023-01-19T22:44:01.803Z,99934.25
2023-01-19T22:46:33.747Z,99938.75
2023-01-19T22:49:00.404Z,99941.72
2023-01-19T22:51:27.934Z,99932.00
2023-01-19T22:53:56.565Z,99932.25
2023-01-19T22:56:25.431Z,99932.53
2023-01-19T22:58:52.527Z,99929.72
2023-01-19T23:01:21.565Z,99935.09
2023-01-19T23:03:48.541Z,99933.25
2023-01-19T23:06:26.328Z,99937.91
2023-01-19T23:08:55.145Z,99937.91
2023-01-19T23:11:24.394Z,99945.94
2023-01-19T23:13:51.053Z,99935.22
2023-01-19T23:16:18.050Z,99940.84
2023-01-19T23:18:44.843Z,99950.91
2023-01-19T23:21:19.733Z,99939.50
2023-01-19T23:23:48.751Z,99938.75
2023-01-19T23:26:20.303Z,99937.22
2023-01-19T23:28:47.282Z,99937.63
2023-01-19T23:31:17.866Z,99938.63
2023-01-19T23:33:44.867Z,99954.84
2023-01-19T23:36:12.575Z,99947.25
2023-01-19T23:38:39.973Z,99946.53
2023-01-19T23:41:07.205Z,99954.84
2023-01-19T23:43:34.077Z,99952.16
2023-01-19T23:46:08.238Z,99949.88
2023-01-19T23:48:37.431Z,99954.56
2023-01-19T23:51:08.881Z,99955.53
2023-01-19T23:53:36.218Z,99957.34
2023-01-19T23:56:09.971Z,99962.72
2023-01-19T23:58:36.465Z,99967.66
